Novo Mesto, Slovenia
Current Conditions -  °F | °C
As of 12:00 PM on Thursday 23 Oct 2014 (Local Time) from LJCE Reporting Station
Light Rain Light Rain  
Wind Chill: 44°   Ceiling: 2000
Heat Index: 46°   Visibility: 6mi
Dew Point: 43°   Wind: 6mph
Humidity: 87%   Direction: 240°WSW
Pressure: 29.8"   Gusts: NA
Location:  45.81°N, 15.18°E
Report Text: LJCE 231100Z 24005KT 9999 -RA FEW007 BKN020 OVC050 08/06 Q1009 RMK WHT
Loading
Personal Weather Stations






























Interactive Weather Map
Tropical Storm Tracking
New forecast layout! Learn more

10-Day Weather Forecast

Advertisements
Track Severe Weather on mobile